Time;durP1;ratioP1;P1;durP2;ratioP2;P2;SDS_P1;SDS_P2;PMS_P1;PMS_P2;Temp;Humidity;BMP_temperature;BMP_pressure;BME280_temperature;BME280_humidity;BME280_pressure;Samples;Min_cycle;Max_cycle;Signal;HPM_P1;HPM_P2
2021/10/18 00:01:03;;;;;;;2.90;2.70;;;13.20;99.90;;;;;;4920418;29;20055;-85
2021/10/18 00:03:31;;;;;;;2.92;2.72;;;13.20;99.90;;;;;;4920711;29;20066;-88
2021/10/18 00:05:58;;;;;;;2.70;2.50;;;13.10;99.90;;;;;;4921595;29;20055;-88
2021/10/18 00:08:25;;;;;;;2.58;2.38;;;12.90;99.90;;;;;;4920793;29;20051;-87
2021/10/18 00:10:53;;;;;;;3.85;3.42;;;12.80;99.90;;;;;;4936194;29;20055;-86
2021/10/18 00:13:40;;;;;;;3.60;3.30;;;12.80;99.90;;;;;;4937419;29;20414;-85
2021/10/18 00:16:08;;;;;;;2.60;2.40;;;12.70;99.90;;;;;;4937479;29;20461;-86
2021/10/18 00:18:35;;;;;;;3.25;3.00;;;12.80;99.90;;;;;;4921910;29;20059;-89
2021/10/18 00:21:03;;;;;;;4.50;3.90;;;12.90;99.90;;;;;;4939097;29;20054;-88
2021/10/18 00:23:30;;;;;;;3.40;3.10;;;12.90;99.90;;;;;;4921611;29;20055;-84
2021/10/18 00:25:57;;;;;;;4.00;3.67;;;12.90;99.90;;;;;;4937223;29;20066;-87
2021/10/18 00:28:25;;;;;;;8.27;6.85;;;13.00;99.90;;;;;;4938045;29;20401;-90
2021/10/18 00:47:50;;;;;;;2.80;2.60;;;13.10;99.90;;;;;;4935830;29;20147;-90
2021/10/18 00:50:18;;;;;;;2.90;2.70;;;13.10;99.90;;;;;;4938275;29;20452;-91
2021/10/18 00:52:45;;;;;;;2.70;2.50;;;13.00;99.90;;;;;;4938881;29;20052;-90
2021/10/18 00:55:14;;;;;;;5.47;3.78;;;13.00;99.90;;;;;;4938665;29;20059;-91
2021/10/18 00:57:41;;;;;;;2.72;2.53;;;13.00;99.90;;;;;;4936654;29;20062;-83
2021/10/18 01:00:09;;;;;;;3.85;3.55;;;13.00;99.90;;;;;;4936522;29;20055;-88
2021/10/18 01:02:37;;;;;;;4.20;3.80;;;13.00;99.90;;;;;;4940963;29;20406;-87
2021/10/18 01:05:06;;;;;;;2.60;2.40;;;13.00;99.90;;;;;;4954816;29;20147;-88
2021/10/18 01:07:35;;;;;;;3.60;3.30;;;13.00;99.90;;;;;;4955893;29;20082;-86
2021/10/18 01:10:03;;;;;;;3.53;3.22;;;12.90;99.90;;;;;;4955300;29;20081;-86
2021/10/18 01:12:31;;;;;;;3.25;2.97;;;12.90;99.90;;;;;;4955274;29;20055;-86
2021/10/18 01:14:58;;;;;;;2.67;2.47;;;12.80;99.90;;;;;;4939762;29;20075;-86
2021/10/18 01:17:26;;;;;;;4.38;4.07;;;12.90;99.90;;;;;;4956395;29;20126;-87
2021/10/18 01:19:55;;;;;;;3.13;2.83;;;12.90;99.90;;;;;;4971069;28;20051;-87
2021/10/18 01:22:22;;;;;;;2.90;2.70;;;12.90;99.90;;;;;;4955021;28;20392;-86
2021/10/18 01:24:57;;;;;;;2.95;2.75;;;12.90;99.90;;;;;;4954635;29;20051;-85
2021/10/18 01:27:25;;;;;;;4.45;3.67;;;12.80;99.90;;;;;;4954848;28;20110;-87
2021/10/18 01:29:52;;;;;;;3.33;3.10;;;12.90;99.90;;;;;;4954391;29;20503;-86
2021/10/18 01:32:20;;;;;;;3.15;2.95;;;12.80;99.90;;;;;;4954213;29;20677;-85
2021/10/18 01:34:54;;;;;;;4.85;3.63;;;12.80;99.90;;;;;;4937936;29;20496;-85
2021/10/18 01:37:25;;;;;;;4.22;3.83;;;12.70;99.90;;;;;;4953402;29;20059;-85
2021/10/18 01:39:55;;;;;;;;;;;12.80;99.90;;;;;;4954356;29;20074;-87
2021/10/18 01:42:23;;;;;;;3.15;2.95;;;12.80;99.90;;;;;;4955156;29;19954;-87
2021/10/18 01:44:58;;;;;;;2.95;2.75;;;12.90;99.90;;;;;;4955182;28;20451;-87
2021/10/18 01:47:29;;;;;;;2.80;2.60;;;12.80;99.90;;;;;;4972239;28;20142;-88
2021/10/18 01:50:10;;;;;;;3.03;2.83;;;12.80;99.90;;;;;;4975747;28;20051;-87
2021/10/18 01:52:38;;;;;;;2.63;2.42;;;12.80;99.90;;;;;;4974461;28;20077;-88
2021/10/18 01:55:06;;;;;;;3.88;3.58;;;12.70;99.90;;;;;;4975424;28;20518;-88
2021/10/18 01:57:33;;;;;;;2.72;2.53;;;12.80;99.90;;;;;;4957917;28;20447;-86
2021/10/18 02:00:06;;;;;;;4.50;3.55;;;12.80;99.90;;;;;;4957656;28;20051;-89
2021/10/18 02:02:35;;;;;;;7.95;5.93;;;12.80;99.90;;;;;;4957981;28;20047;-88
2021/10/18 02:05:03;;;;;;;2.60;2.40;;;12.80;99.90;;;;;;4957916;28;20419;-86
2021/10/18 02:07:31;;;;;;;5.47;4.97;;;12.80;99.90;;;;;;4958796;28;20143;-91
2021/10/18 02:09:59;;;;;;;3.28;3.03;;;12.80;99.90;;;;;;4958428;28;20146;-88
2021/10/18 02:16:05;;;;;;;5.97;3.90;;;12.70;99.90;;;;;;4976582;28;20167;-92
2021/10/18 02:18:33;;;;;;;4.15;3.65;;;12.60;99.90;;;;;;4943471;28;20059;-90
2021/10/18 02:21:01;;;;;;;2.50;2.30;;;12.70;99.90;;;;;;4958700;28;20059;-90
2021/10/18 02:23:32;;;;;;;3.65;3.35;;;12.70;99.90;;;;;;4957808;28;20439;-89
2021/10/18 02:25:59;;;;;;;3.25;2.53;;;12.70;99.90;;;;;;4957784;28;20054;-89
2021/10/18 02:28:27;;;;;;;2.50;2.30;;;12.70;99.90;;;;;;4957240;28;20057;-88
2021/10/18 02:30:54;;;;;;;2.90;2.70;;;12.70;99.90;;;;;;4941977;28;20051;-88
2021/10/18 02:33:21;;;;;;;3.15;2.95;;;12.70;99.90;;;;;;4941219;28;20058;-88
2021/10/18 02:35:50;;;;;;;2.90;2.70;;;12.70;99.90;;;;;;4940743;28;20051;-89
2021/10/18 02:38:17;;;;;;;3.63;3.33;;;12.50;99.90;;;;;;4957087;28;20142;-87
2021/10/18 02:40:44;;;;;;;3.35;3.08;;;12.60;99.90;;;;;;4956184;28;20380;-87
2021/10/18 02:43:12;;;;;;;2.67;2.47;;;12.50;99.90;;;;;;4973757;28;20450;-88
2021/10/18 02:45:39;;;;;;;4.57;3.92;;;12.60;99.90;;;;;;4956054;28;20055;-85
2021/10/18 02:48:07;;;;;;;3.42;3.13;;;12.70;99.90;;;;;;4940807;28;20059;-87
2021/10/18 02:50:34;;;;;;;3.83;3.53;;;12.60;99.90;;;;;;4956255;28;20478;-85
2021/10/18 02:53:01;;;;;;;3.85;3.47;;;12.60;99.90;;;;;;4975452;28;20623;-86
2021/10/18 02:55:28;;;;;;;4.05;3.35;;;12.60;99.90;;;;;;4958027;28;20058;-88
2021/10/18 02:57:56;;;;;;;2.97;2.78;;;12.50;99.90;;;;;;4957146;28;20143;-86
2021/10/18 03:00:23;;;;;;;3.33;3.03;;;12.50;99.90;;;;;;4957441;28;20050;-87
2021/10/18 03:02:51;;;;;;;2.55;2.35;;;12.50;99.90;;;;;;4940068;28;20058;-87
2021/10/18 03:05:18;;;;;;;3.05;2.58;;;12.50;99.90;;;;;;4955972;28;20051;-86
2021/10/18 03:07:51;;;;;;;2.90;2.70;;;12.50;99.90;;;;;;4973010;28;20490;-84
2021/10/18 03:10:21;;;;;;;4.35;3.95;;;12.50;99.90;;;;;;4974052;28;20051;-85
2021/10/18 03:12:49;;;;;;;2.60;2.40;;;12.50;99.90;;;;;;4971926;28;20506;-83
2021/10/18 03:15:17;;;;;;;2.50;2.30;;;12.50;99.90;;;;;;4955630;28;20050;-84
2021/10/18 03:17:45;;;;;;;4.00;3.70;;;12.50;99.90;;;;;;4972254;28;20121;-83
2021/10/18 03:20:13;;;;;;;3.42;3.20;;;12.60;99.90;;;;;;4955627;28;20519;-85
2021/10/18 03:22:41;;;;;;;2.80;2.60;;;12.50;99.90;;;;;;4939647;28;20625;-82
2021/10/18 03:25:10;;;;;;;2.53;2.33;;;12.50;99.90;;;;;;4955580;28;20415;-82
2021/10/18 03:27:38;;;;;;;2.55;2.35;;;12.60;99.90;;;;;;4973158;28;20403;-87
2021/10/18 03:30:06;;;;;;;4.28;3.97;;;12.50;99.90;;;;;;4956449;28;20061;-89
2021/10/18 03:32:33;;;;;;;3.20;3.00;;;12.50;99.90;;;;;;4956187;28;20054;-88
2021/10/18 03:35:01;;;;;;;4.00;3.70;;;12.50;99.90;;;;;;4974739;28;20055;-90
2021/10/18 03:37:28;;;;;;;2.90;2.67;;;12.50;99.90;;;;;;4974165;28;20043;-89
2021/10/18 03:39:55;;;;;;;4.25;3.85;;;12.40;99.90;;;;;;4956064;28;20081;-86
2021/10/18 03:42:23;;;;;;;2.70;2.50;;;12.50;99.90;;;;;;4956040;28;20062;-85
2021/10/18 03:44:50;;;;;;;2.85;2.65;;;12.50;99.90;;;;;;4940577;28;20462;-85
2021/10/18 03:47:21;;;;;;;5.63;3.40;;;12.50;99.90;;;;;;4958996;28;20226;-85
2021/10/18 03:49:48;;;;;;;3.00;2.80;;;12.50;99.90;;;;;;4959898;28;20059;-89
2021/10/18 03:52:17;;;;;;;3.05;2.85;;;12.40;99.90;;;;;;4959997;28;20050;-84
2021/10/18 03:54:45;;;;;;;7.53;4.50;;;12.40;99.90;;;;;;4976827;28;20062;-87
2021/10/18 03:57:12;;;;;;;6.45;5.80;;;12.30;99.90;;;;;;4976998;28;20418;-88
2021/10/18 03:59:40;;;;;;;3.08;2.88;;;12.30;99.90;;;;;;4977427;28;20121;-88
2021/10/18 04:02:07;;;;;;;2.85;2.65;;;12.00;99.90;;;;;;4976659;28;20047;-87
2021/10/18 04:04:44;;;;;;;3.15;2.95;;;11.90;99.90;;;;;;4944204;29;20133;-85
2021/10/18 04:07:11;;;;;;;3.30;3.10;;;11.80;99.90;;;;;;4958104;29;20059;-90
2021/10/18 04:09:39;;;;;;;5.82;3.50;;;11.90;99.90;;;;;;4959940;29;20066;-94
2021/10/18 04:12:07;;;;;;;2.60;2.40;;;11.80;99.90;;;;;;4959872;29;20053;-91
2021/10/18 04:14:34;;;;;;;2.72;2.53;;;12.00;99.90;;;;;;4943036;29;20051;-89
2021/10/18 04:17:01;;;;;;;2.80;2.60;;;12.10;99.90;;;;;;4943153;29;20044;-92
2021/10/18 04:19:28;;;;;;;2.72;2.53;;;12.20;99.90;;;;;;4959322;29;20065;-94
2021/10/18 04:21:56;;;;;;;2.70;2.50;;;12.30;99.90;;;;;;4926419;29;20146;-89
2021/10/18 04:24:23;;;;;;;4.55;4.15;;;12.30;99.90;;;;;;4959648;29;20081;-94
2021/10/18 04:26:50;;;;;;;4.30;3.95;;;12.20;99.90;;;;;;4959282;29;20074;-90
2021/10/18 04:29:18;;;;;;;3.58;3.33;;;12.20;99.90;;;;;;4925555;29;20047;-86
2021/10/18 04:31:45;;;;;;;2.88;2.67;;;12.20;99.90;;;;;;4925619;29;20066;-89
2021/10/18 04:34:12;;;;;;;4.03;3.72;;;12.20;99.90;;;;;;4925414;29;20059;-86
2021/10/18 04:36:56;;;;;;;3.22;3.03;;;12.30;99.90;;;;;;5161318;23;20029;-90
2021/10/18 04:39:23;;;;;;;2.75;2.55;;;12.20;99.90;;;;;;4900982;29;20127;-91
2021/10/18 04:41:51;;;;;;;2.97;2.78;;;12.20;99.90;;;;;;4919995;29;20056;-90
2021/10/18 04:48:45;;;;;;;3.50;3.20;;;12.30;99.90;;;;;;4889407;29;20044;-89
2021/10/18 04:51:12;;;;;;;7.32;5.07;;;12.20;99.90;;;;;;4902062;29;20071;-87
2021/10/18 04:53:40;;;;;;;4.63;3.13;;;12.20;99.90;;;;;;4886222;29;20150;-87
2021/10/18 04:56:07;;;;;;;3.03;2.83;;;12.20;99.90;;;;;;4900493;29;20083;-86
2021/10/18 04:58:36;;;;;;;2.83;2.63;;;12.10;99.90;;;;;;4900995;29;20052;-87
2021/10/18 05:01:04;;;;;;;4.25;3.85;;;12.00;99.90;;;;;;4904295;29;20464;-91
2021/10/18 05:19:26;;;;;;;3.10;2.90;;;12.70;99.90;;;;;;4860802;29;20557;-88
2021/10/18 05:21:53;;;;;;;4.13;3.40;;;12.20;99.90;;;;;;4858149;29;20137;-87
2021/10/18 05:24:21;;;;;;;3.28;3.08;;;11.90;99.90;;;;;;4873006;29;20066;-85
2021/10/18 05:26:48;;;;;;;3.65;3.35;;;11.80;99.90;;;;;;4880935;29;20505;-88
2021/10/18 05:29:15;;;;;;;2.90;2.70;;;11.90;99.90;;;;;;4881475;29;20135;-85
2021/10/18 05:31:43;;;;;;;3.15;2.95;;;11.90;99.90;;;;;;4896760;29;20546;-85
2021/10/18 05:34:10;;;;;;;3.22;2.95;;;11.90;99.90;;;;;;4882785;29;20056;-92
2021/10/18 05:36:38;;;;;;;2.97;2.78;;;11.80;99.90;;;;;;4895789;29;20052;-88
2021/10/18 05:39:05;;;;;;;3.80;3.50;;;11.80;99.90;;;;;;4916371;29;20127;-89
2021/10/18 05:42:02;;;;;;;2.92;2.72;;;11.70;99.90;;;;;;4884374;29;20079;-87
2021/10/18 05:44:53;;;;;;;4.72;2.85;;;11.70;99.90;;;;;;4883973;29;20055;-84
2021/10/18 05:48:17;;;;;;;2.60;2.40;;;11.90;99.90;;;;;;4914673;29;20389;-88
2021/10/18 05:56:13;;;;;;;4.50;4.15;;;11.90;99.90;;;;;;4840768;29;20108;-86
2021/10/18 05:58:43;;;;;;;3.53;3.22;;;12.30;99.90;;;;;;4838266;29;20604;-83
2021/10/18 06:02:19;;;;;;;2.80;2.60;;;11.90;99.90;;;;;;4836076;29;20065;-80
2021/10/18 06:04:47;;;;;;;3.50;3.22;;;11.90;99.90;;;;;;4941170;29;20063;-83
2021/10/18 06:07:14;;;;;;;3.65;3.35;;;11.90;99.90;;;;;;4952985;29;20107;-83
2021/10/18 06:09:42;;;;;;;3.78;3.42;;;11.80;99.90;;;;;;4952717;28;20137;-82
2021/10/18 06:12:09;;;;;;;2.97;2.78;;;11.60;99.90;;;;;;4953715;29;20046;-81
2021/10/18 06:14:40;;;;;;;2.78;2.58;;;11.60;99.90;;;;;;4935734;29;20100;-82
2021/10/18 06:17:10;;;;;;;2.67;2.47;;;11.60;99.90;;;;;;4935088;29;20057;-83
2021/10/18 06:19:38;;;;;;;3.50;3.25;;;11.60;99.90;;;;;;4920031;29;20112;-83
2021/10/18 06:22:05;;;;;;;5.53;4.15;;;11.60;99.90;;;;;;4919932;29;20468;-83
2021/10/18 06:24:32;;;;;;;2.90;2.70;;;11.90;99.90;;;;;;4935375;29;20059;-81
2021/10/18 06:27:00;;;;;;;3.10;2.90;;;12.00;99.90;;;;;;4952731;29;20049;-84
2021/10/18 06:29:27;;;;;;;2.83;2.63;;;12.20;99.90;;;;;;4953257;29;20058;-82
2021/10/18 06:31:54;;;;;;;3.00;2.80;;;12.30;99.90;;;;;;4936584;29;20194;-83
2021/10/18 06:34:22;;;;;;;4.80;4.38;;;12.50;99.90;;;;;;4920808;29;20123;-83
2021/10/18 06:36:49;;;;;;;2.70;2.50;;;12.70;99.90;;;;;;4920642;29;20074;-81
2021/10/18 06:39:17;;;;;;;4.50;4.10;;;12.80;99.90;;;;;;4920110;29;20054;-83
2021/10/18 06:41:44;;;;;;;3.00;2.78;;;12.90;99.90;;;;;;4936852;29;20099;-83
2021/10/18 06:44:12;;;;;;;3.25;3.05;;;13.00;99.90;;;;;;4935891;29;20062;-82
2021/10/18 06:46:39;;;;;;;3.10;2.90;;;13.20;99.90;;;;;;4936475;29;20043;-82
2021/10/18 06:49:06;;;;;;;3.00;2.78;;;13.30;99.90;;;;;;4952002;29;20425;-82
2021/10/18 06:51:37;;;;;;;2.80;2.60;;;13.40;99.90;;;;;;4936215;29;20057;-83
2021/10/18 06:54:05;;;;;;;3.08;2.88;;;13.40;99.90;;;;;;4936258;29;20130;-80
2021/10/18 06:56:32;;;;;;;2.60;2.40;;;13.40;99.90;;;;;;4936182;29;20141;-83
2021/10/18 06:59:00;;;;;;;2.50;2.30;;;13.40;99.90;;;;;;4935700;29;20059;-82
2021/10/18 07:01:27;;;;;;;2.67;2.47;;;13.50;99.90;;;;;;4935938;29;20129;-81
2021/10/18 07:03:55;;;;;;;4.43;4.13;;;13.50;99.90;;;;;;4947631;29;20048;-84
2021/10/18 07:20:14;;;;;;;2.55;2.35;;;13.80;99.90;;;;;;4935236;29;20463;-83
2021/10/18 07:22:43;;;;;;;3.53;3.22;;;13.80;99.90;;;;;;4901972;29;20080;-84
2021/10/18 07:25:13;;;;;;;2.42;2.22;;;13.80;99.90;;;;;;4919883;29;20058;-83
2021/10/18 07:27:44;;;;;;;4.95;3.33;;;13.80;99.90;;;;;;4935636;29;20062;-83
2021/10/18 07:30:12;;;;;;;2.90;2.70;;;13.70;99.90;;;;;;4920011;29;20061;-83
2021/10/18 07:32:45;;;;;;;2.90;2.70;;;13.40;99.90;;;;;;4934846;29;20411;-87
2021/10/18 07:35:15;;;;;;;2.40;2.20;;;13.80;99.90;;;;;;4919845;29;20084;-83
2021/10/18 07:38:09;;;;;;;2.38;2.17;;;13.80;99.90;;;;;;4919834;29;20124;-82
2021/10/18 07:40:43;;;;;;;3.08;2.75;;;14.10;99.90;;;;;;4936342;29;20063;-82
2021/10/18 07:43:11;;;;;;;2.65;2.45;;;14.30;99.90;;;;;;4916670;29;20131;-80
2021/10/18 07:45:38;;;;;;;2.13;2.03;;;14.60;99.90;;;;;;4918455;29;20131;-84
2021/10/18 07:48:09;;;;;;;3.25;3.05;;;14.80;99.90;;;;;;4917195;29;20064;-83
2021/10/18 07:50:36;;;;;;;3.42;3.20;;;15.00;99.90;;;;;;4901088;29;20052;-81
2021/10/18 07:53:04;;;;;;;2.00;1.90;;;15.30;99.90;;;;;;4901162;29;20052;-84
2021/10/18 07:55:34;;;;;;;3.97;2.53;;;15.50;99.90;;;;;;4917872;29;20509;-84
2021/10/18 07:58:14;;;;;;;2.38;2.17;;;15.50;99.90;;;;;;4916853;29;20059;-85
2021/10/18 08:00:42;;;;;;;2.50;2.30;;;15.60;99.90;;;;;;4901194;29;20099;-86
2021/10/18 08:03:09;;;;;;;2.60;2.40;;;15.70;99.90;;;;;;4901277;29;20143;-86
2021/10/18 08:05:37;;;;;;;4.60;4.05;;;15.60;99.90;;;;;;4926804;29;20138;-87
2021/10/18 08:21:12;;;;;;;2.85;2.65;;;17.50;99.90;;;;;;4897988;29;20476;-84
2021/10/18 08:24:25;;;;;;;2.55;2.35;;;17.80;99.90;;;;;;4898274;29;20044;-86
2021/10/18 08:26:56;;;;;;;2.03;1.88;;;17.70;99.90;;;;;;4899465;29;20557;-90
2021/10/18 08:29:36;;;;;;;2.67;2.47;;;18.10;99.90;;;;;;4898259;29;20445;-86
2021/10/18 08:32:04;;;;;;;2.40;2.20;;;17.90;99.90;;;;;;4897512;29;20068;-86
2021/10/18 08:34:32;;;;;;;2.63;2.42;;;18.30;99.90;;;;;;4882653;29;20088;-88
2021/10/18 08:37:01;;;;;;;3.47;3.17;;;18.80;99.90;;;;;;4882931;29;20052;-84
2021/10/18 08:42:25;;;;;;;3.47;2.58;;;18.10;99.90;;;;;;4898516;29;20066;-82
2021/10/18 08:44:52;;;;;;;2.67;2.47;;;18.00;99.90;;;;;;4897992;29;20108;-83
2021/10/18 08:47:27;;;;;;;3.17;2.88;;;18.50;99.90;;;;;;4881748;29;20060;-81
2021/10/18 08:49:54;;;;;;;;;;;18.20;99.90;;;;;;4898743;29;20409;-82
2021/10/18 08:52:22;;;;;;;3.28;3.00;;;18.40;99.90;;;;;;4898294;29;20014;-84
2021/10/18 08:54:52;;;;;;;2.25;2.05;;;18.50;99.90;;;;;;4897660;29;20139;-84
2021/10/18 09:01:42;;;;;;;3.17;2.90;;;18.60;99.90;;;;;;4903140;29;20404;-81
2021/10/18 09:04:25;;;;;;;4.03;2.67;;;18.40;99.90;;;;;;4917015;29;20071;-84
2021/10/18 09:07:12;;;;;;;2.50;2.30;;;18.80;99.90;;;;;;4916935;29;20493;-82
2021/10/18 09:09:51;;;;;;;2.97;2.08;;;18.80;99.90;;;;;;4916746;29;20048;-84
2021/10/18 09:12:38;;;;;;;1.93;1.83;;;18.80;99.90;;;;;;4910510;29;20055;-83
2021/10/18 09:15:26;;;;;;;1.50;1.40;;;19.10;99.90;;;;;;4913857;29;20044;-82
2021/10/18 09:17:58;;;;;;;1.63;1.52;;;19.30;99.90;;;;;;4911996;29;20129;-83
2021/10/18 09:20:35;;;;;;;4.15;3.60;;;19.40;99.90;;;;;;4915200;29;20138;-78
2021/10/18 09:23:36;;;;;;;1.60;1.50;;;18.90;99.90;;;;;;4910528;29;20076;-79
2021/10/18 09:26:08;;;;;;;1.30;1.20;;;19.10;99.90;;;;;;4898424;29;20392;-79
2021/10/18 09:28:36;;;;;;;;;;;19.50;99.90;;;;;;4907662;29;20052;-80
2021/10/18 09:31:04;;;;;;;1.80;1.70;;;19.70;99.90;;;;;;4915760;29;20347;-79
2021/10/18 09:33:42;;;;;;;2.38;2.17;;;20.10;99.90;;;;;;4915831;29;20123;-84
2021/10/18 09:36:13;;;;;;;1.85;1.75;;;20.20;99.90;;;;;;4916339;29;20135;-89
2021/10/18 09:38:41;;;;;;;1.40;1.30;;;20.90;99.90;;;;;;4916352;29;20068;-83
2021/10/18 09:41:08;;;;;;;2.15;1.95;;;21.20;99.90;;;;;;4906718;29;20060;-79
2021/10/18 09:44:07;;;;;;;3.63;1.85;;;21.10;99.90;;;;;;4915512;29;20058;-80
2021/10/18 09:46:38;;;;;;;1.90;1.77;;;21.00;99.90;;;;;;4915458;29;20130;-81
2021/10/18 10:51:55;;;;;;;1.95;1.27;;;22.30;95.30;;;;;;4906507;29;20062;-92
2021/10/18 10:54:40;;;;;;;1.50;1.40;;;22.70;96.20;;;;;;4936878;29;20415;-92
2021/10/18 10:57:12;;;;;;;1.35;1.25;;;22.60;95.20;;;;;;4942105;29;20065;-93
2021/10/18 11:04:34;;;;;;;4.70;2.63;;;23.30;92.60;;;;;;4898690;29;20074;-83
2021/10/18 11:07:07;;;;;;;1.73;1.60;;;23.10;94.10;;;;;;4932207;29;20055;-94
2021/10/18 11:09:43;;;;;;;6.07;3.83;;;22.80;93.10;;;;;;4951291;29;20055;-95
2021/10/18 11:12:16;;;;;;;2.63;2.28;;;22.90;92.50;;;;;;4935313;28;20039;-94
2021/10/18 11:15:03;;;;;;;1.10;1.05;;;23.10;92.20;;;;;;4950065;29;20055;-94
2021/10/18 11:17:50;;;;;;;2.45;1.75;;;23.60;92.80;;;;;;4950446;29;20066;-93
2021/10/18 11:20:26;;;;;;;1.77;1.38;;;22.60;91.10;;;;;;4955501;29;20040;-84
2021/10/18 11:22:59;;;;;;;0.93;0.93;;;23.10;91.70;;;;;;4927473;29;20151;-92
2021/10/18 11:25:27;;;;;;;;;;;22.90;91.50;;;;;;4926286;29;20044;-93
2021/10/18 11:28:03;;;;;;;2.08;1.20;;;23.50;91.00;;;;;;4947852;29;19927;-93
2021/10/18 11:30:33;;;;;;;1.85;1.27;;;23.40;91.40;;;;;;4931728;29;20128;-93
2021/10/18 11:33:16;;;;;;;2.67;2.38;;;23.40;90.50;;;;;;4946927;29;20111;-92
2021/10/18 11:35:45;;;;;;;0.98;0.95;;;23.50;90.20;;;;;;4946204;29;20444;-92
2021/10/18 11:38:15;;;;;;;1.23;1.13;;;23.00;89.20;;;;;;4927331;29;20088;-93
2021/10/18 11:40:49;;;;;;;1.35;1.25;;;23.00;90.60;;;;;;4927260;29;20066;-90
2021/10/18 11:43:19;;;;;;;1.70;1.42;;;23.40;89.30;;;;;;4940160;29;20131;-89
2021/10/18 11:45:55;;;;;;;1.88;1.67;;;24.10;90.00;;;;;;4945237;29;20055;-94
2021/10/18 11:48:26;;;;;;;1.42;1.27;;;24.10;88.40;;;;;;4928335;29;20043;-88
2021/10/18 12:06:53;;;;;;;6.55;1.92;;;23.40;88.90;;;;;;4990202;23;20043;-88
2021/10/18 12:09:27;;;;;;;1.20;1.13;;;23.70;86.50;;;;;;4964312;28;20105;-92
2021/10/18 12:11:55;;;;;;;1.08;1.05;;;24.00;84.80;;;;;;4946646;28;20098;-93
2021/10/18 12:14:22;;;;;;;2.40;1.70;;;23.70;86.70;;;;;;4946403;28;20109;-92
2021/10/18 12:17:02;;;;;;;1.45;1.27;;;23.80;86.90;;;;;;4961490;28;20065;-91
2021/10/18 12:19:31;;;;;;;0.90;0.90;;;23.30;84.90;;;;;;4961490;28;20058;-93
2021/10/18 12:30:42;;;;;;;1.25;1.08;;;25.20;84.20;;;;;;4979476;28;20049;-94
2021/10/18 12:52:05;;;;;;;0.80;0.65;;;30.70;58.30;;;;;;5035200;23;20051;-89
2021/10/18 12:54:36;;;;;;;1.88;1.48;;;27.80;61.80;;;;;;4924162;29;20150;-88
2021/10/18 12:57:33;;;;;;;;;;;;;;;;;;;;;
2021/10/18 13:00:58;;;;;;;0.82;0.80;;;26.80;67.60;;;;;;4955371;29;20148;-85
2021/10/18 13:03:26;;;;;;;2.92;1.42;;;26.50;68.30;;;;;;4939090;28;20059;-86
2021/10/18 13:22:38;;;;;;;0.90;0.77;;;26.00;67.50;;;;;;4953034;29;20154;-88
2021/10/18 13:25:06;;;;;;;0.68;0.60;;;25.70;69.30;;;;;;4938135;29;20121;-89
2021/10/18 13:27:36;;;;;;;2.47;1.92;;;25.60;69.90;;;;;;4922252;29;20051;-88
2021/10/18 13:30:29;;;;;;;0.65;0.65;;;25.00;70.00;;;;;;4922394;29;20377;-89
2021/10/18 13:33:19;;;;;;;0.80;0.80;;;24.20;71.30;;;;;;4918661;29;20070;-88
2021/10/18 13:35:47;;;;;;;0.77;0.77;;;24.70;71.70;;;;;;4919322;29;20102;-88
2021/10/18 13:38:14;;;;;;;0.60;0.60;;;25.20;71.40;;;;;;4919817;29;20062;-88
2021/10/18 13:40:42;;;;;;;0.80;0.80;;;25.30;70.80;;;;;;4936068;29;20135;-87
2021/10/18 13:43:16;;;;;;;1.23;1.15;;;24.20;71.30;;;;;;4919106;29;20075;-87
2021/10/18 13:45:43;;;;;;;2.97;1.55;;;23.90;72.70;;;;;;4919004;29;20115;-88
2021/10/18 13:48:13;;;;;;;1.70;1.55;;;24.50;73.00;;;;;;4918223;29;20056;-87
2021/10/18 13:50:40;;;;;;;2.42;1.70;;;25.00;72.60;;;;;;4897821;29;20083;-88
2021/10/18 13:53:07;;;;;;;1.33;1.23;;;24.70;72.40;;;;;;4899992;29;20060;-88
2021/10/18 13:55:35;;;;;;;0.60;0.60;;;23.80;72.70;;;;;;4915571;29;20461;-88
2021/10/18 13:58:02;;;;;;;0.90;0.90;;;23.40;74.70;;;;;;4915795;29;20115;-88
2021/10/18 14:00:48;;;;;;;0.85;0.85;;;23.40;75.60;;;;;;4915522;29;20056;-86
2021/10/18 14:03:19;;;;;;;0.90;0.90;;;23.40;75.30;;;;;;4900215;29;20588;-88
2021/10/18 14:05:46;;;;;;;;;;;24.00;74.50;;;;;;4934202;29;20456;-88
2021/10/18 14:16:56;;;;;;;1.70;1.10;;;24.60;71.60;;;;;;4935390;29;20058;-87
2021/10/18 14:36:59;;;;;;;1.50;1.08;;;22.80;76.50;;;;;;4894846;29;20183;-88
2021/10/18 14:39:29;;;;;;;0.60;0.60;;;22.80;77.60;;;;;;4896282;29;20365;-88
2021/10/18 14:41:59;;;;;;;0.98;0.98;;;23.20;77.80;;;;;;4880669;29;20369;-88
2021/10/18 14:44:27;;;;;;;0.77;0.77;;;22.60;79.00;;;;;;4895967;29;20080;-88
2021/10/18 14:47:18;;;;;;;1.55;1.45;;;22.60;80.90;;;;;;4898320;29;20075;-87
2021/10/18 14:50:10;;;;;;;;;;;22.50;81.30;;;;;;4881538;29;20108;-89
2021/10/18 14:53:15;;;;;;;0.70;0.70;;;22.20;82.60;;;;;;4896747;29;19927;-89
2021/10/18 14:56:08;;;;;;;1.30;1.20;;;22.20;84.00;;;;;;4870456;29;20450;-89
2021/10/18 14:58:36;;;;;;;0.90;0.90;;;21.80;85.10;;;;;;4896831;29;20052;-88
2021/10/18 15:01:26;;;;;;;1.00;1.00;;;21.40;87.10;;;;;;4898679;29;20060;-87
2021/10/18 15:04:19;;;;;;;1.33;1.23;;;21.10;89.10;;;;;;4913138;29;20092;-89
2021/10/18 15:07:08;;;;;;;1.15;1.05;;;21.00;90.00;;;;;;4871160;29;20046;-86
2021/10/18 15:10:47;;;;;;;19.58;1.92;;;20.90;90.40;;;;;;4908490;29;20049;-84
2021/10/18 15:13:15;;;;;;;0.90;0.90;;;20.40;90.80;;;;;;4895556;29;20441;-85
2021/10/18 15:15:42;;;;;;;2.42;2.22;;;20.30;91.80;;;;;;4911405;29;20147;-86
2021/10/18 15:18:10;;;;;;;3.05;2.75;;;20.00;92.30;;;;;;4896470;29;20222;-82
2021/10/18 15:20:37;;;;;;;4.07;3.70;;;20.00;93.70;;;;;;4910781;29;20070;-86
2021/10/18 15:23:04;;;;;;;6.25;5.72;;;19.70;94.20;;;;;;4895047;29;20131;-85
2021/10/18 15:25:32;;;;;;;3.03;2.75;;;19.70;94.60;;;;;;4910515;29;20049;-83
2021/10/18 15:27:59;;;;;;;1.67;1.58;;;19.50;95.30;;;;;;4894718;29;20065;-80
2021/10/18 15:30:27;;;;;;;1.45;1.35;;;19.20;96.30;;;;;;4904409;29;20052;-83
2021/10/18 15:32:54;;;;;;;1.80;1.70;;;19.00;97.30;;;;;;4929530;29;20080;-83
2021/10/18 15:35:22;;;;;;;1.83;1.73;;;18.80;98.80;;;;;;4920921;29;20047;-83
2021/10/18 15:37:50;;;;;;;1.75;1.65;;;18.70;99.10;;;;;;4931982;29;20086;-80
2021/10/18 15:40:17;;;;;;;1.40;1.30;;;18.60;99.80;;;;;;4934197;29;20444;-86
2021/10/18 15:42:45;;;;;;;4.47;4.13;;;18.50;99.90;;;;;;4920106;29;20132;-85
2021/10/18 15:45:14;;;;;;;4.80;4.40;;;18.70;99.90;;;;;;4920458;29;20058;-85
2021/10/18 15:48:03;;;;;;;4.20;3.10;;;18.70;99.90;;;;;;4923297;29;20044;-85
2021/10/18 15:50:32;;;;;;;2.20;2.00;;;18.60;99.90;;;;;;4920773;29;20060;-86
2021/10/18 15:53:14;;;;;;;1.83;1.73;;;18.60;99.90;;;;;;4921717;29;20103;-87
2021/10/18 15:55:41;;;;;;;1.75;1.65;;;18.50;99.90;;;;;;4920006;29;20052;-86
2021/10/18 15:58:22;;;;;;;1.73;1.63;;;18.40;99.90;;;;;;4920472;29;20082;-88
2021/10/18 16:00:51;;;;;;;2.80;2.60;;;18.40;99.90;;;;;;4934084;29;20123;-84
2021/10/18 16:03:19;;;;;;;1.77;1.67;;;18.20;99.90;;;;;;4936309;29;20067;-94
2021/10/18 16:05:46;;;;;;;2.60;2.40;;;18.10;99.90;;;;;;4901721;29;20052;-88
2021/10/18 16:12:26;;;;;;;1.70;1.60;;;17.90;99.90;;;;;;4917819;29;20131;-84
2021/10/18 16:14:53;;;;;;;1.92;1.83;;;17.80;99.90;;;;;;4926356;29;20051;-86
2021/10/18 16:17:52;;;;;;;2.45;2.13;;;17.80;99.90;;;;;;4905084;29;20059;-87
2021/10/18 16:20:53;;;;;;;1.80;1.70;;;17.70;99.90;;;;;;4882049;29;20450;-87
2021/10/18 16:23:21;;;;;;;3.22;2.95;;;17.50;99.90;;;;;;4880832;29;20399;-90
2021/10/18 16:25:51;;;;;;;1.92;1.83;;;17.40;99.90;;;;;;4885774;29;20057;-93
2021/10/18 16:28:21;;;;;;;1.80;1.70;;;17.30;99.90;;;;;;4884727;29;20065;-93
2021/10/18 16:30:49;;;;;;;2.03;1.90;;;17.10;99.90;;;;;;4882618;29;20125;-87
2021/10/18 16:33:17;;;;;;;2.22;2.08;;;17.00;99.90;;;;;;4863695;29;20068;-85
2021/10/18 16:35:45;;;;;;;2.15;2.05;;;16.90;99.90;;;;;;4862743;29;20554;-87
2021/10/18 16:38:13;;;;;;;2.50;2.30;;;16.90;99.90;;;;;;4901886;29;20060;-94
2021/10/18 16:40:41;;;;;;;3.38;3.17;;;16.90;99.90;;;;;;4913840;29;20058;-86
2021/10/18 16:43:10;;;;;;;6.68;5.53;;;17.10;99.90;;;;;;4932230;29;20110;-90
2021/10/18 16:45:49;;;;;;;3.20;2.95;;;17.20;99.90;;;;;;4942997;29;20091;-91
2021/10/18 16:48:18;;;;;;;3.30;3.10;;;17.10;99.90;;;;;;4911223;29;20397;-90
2021/10/18 16:50:47;;;;;;;3.28;3.00;;;17.10;99.90;;;;;;4909226;29;20193;-83
2021/10/18 16:53:14;;;;;;;1.80;1.70;;;16.90;99.90;;;;;;4934626;29;20058;-82
2021/10/18 16:55:42;;;;;;;2.58;2.38;;;16.70;99.90;;;;;;4935728;29;20048;-79
2021/10/18 16:58:30;;;;;;;1.90;1.80;;;16.60;99.90;;;;;;4918889;29;20631;-81
2021/10/18 17:00:57;;;;;;;2.40;2.20;;;16.50;99.90;;;;;;4918990;29;20083;-80
2021/10/18 17:03:28;;;;;;;2.00;1.90;;;16.40;99.90;;;;;;4935588;29;20052;-81
2021/10/18 17:05:55;;;;;;;1.90;1.80;;;16.40;99.90;;;;;;4948698;29;20091;-81
2021/10/18 17:08:26;;;;;;;2.05;1.92;;;16.40;99.90;;;;;;4954847;29;20047;-81
2021/10/18 17:10:56;;;;;;;2.35;2.17;;;16.40;99.90;;;;;;4922195;29;20086;-88
2021/10/18 17:13:24;;;;;;;2.88;2.65;;;16.40;99.90;;;;;;4955371;29;20047;-86